createdAt,value
2023-04-29T00:00:14.300Z,99484.78
2023-04-29T00:02:42.550Z,99492.13
2023-04-29T00:05:10.484Z,99493.25
2023-04-29T00:07:39.362Z,99494.25
2023-04-29T00:10:06.977Z,99494.38
2023-04-29T00:12:34.643Z,99496.34
2023-04-29T00:15:03.514Z,99497.47
2023-04-29T00:17:31.274Z,99492.41
2023-04-29T00:19:58.952Z,99502.41
2023-04-29T00:22:26.582Z,99501.31
2023-04-29T00:24:54.373Z,99503.41
2023-04-29T00:27:22.375Z,99509.34
2023-04-29T00:29:50.194Z,99512.16
2023-04-29T00:32:18.032Z,99513.28
2023-04-29T00:34:45.646Z,99513.44
2023-04-29T00:37:13.291Z,99510.91
2023-04-29T00:39:41.223Z,99522.56
2023-04-29T00:42:08.833Z,99516.41
2023-04-29T00:44:36.836Z,99520.06
2023-04-29T00:47:05.015Z,99522.72
2023-04-29T00:49:32.566Z,99525.53
2023-04-29T00:52:00.936Z,99528.19
2023-04-29T00:54:28.577Z,99529.19
2023-04-29T00:56:56.426Z,99531.84
2023-04-29T00:59:32.114Z,99535.34
2023-04-29T01:02:00.239Z,99540.84
2023-04-29T01:04:28.681Z,99538.31
2023-04-29T01:06:57.375Z,99541.13
2023-04-29T01:09:25.101Z,99542.97
2023-04-29T01:11:52.666Z,99546.47
2023-04-29T01:14:20.584Z,99554.47
2023-04-29T01:16:49.306Z,99556.31
2023-04-29T01:19:16.928Z,99557.28
2023-04-29T01:21:44.530Z,99557.44
2023-04-29T01:24:12.107Z,99558.41
2023-04-29T01:26:39.709Z,99567.25
2023-04-29T01:29:07.650Z,99564.03
2023-04-29T01:31:35.383Z,99567.53
2023-04-29T01:34:03.039Z,99562.50
2023-04-29T01:36:31.510Z,99568.97
2023-04-29T01:38:59.402Z,99573.59
2023-04-29T01:41:27.381Z,99579.06
2023-04-29T01:43:55.312Z,99569.50
2023-04-29T01:46:22.939Z,99574.00
2023-04-29T01:48:50.513Z,99579.34
2023-04-29T01:51:18.111Z,99573.88
2023-04-29T01:53:46.081Z,99574.00
2023-04-29T01:56:13.751Z,99574.16
2023-04-29T01:58:41.514Z,99576.97
2023-04-29T02:01:29.084Z,99575.28
2023-04-29T02:03:57.224Z,99580.47
2023-04-29T02:06:24.936Z,99580.63
2023-04-29T02:08:52.460Z,99587.63
2023-04-29T02:11:20.068Z,99589.72
2023-04-29T02:13:47.649Z,99587.34
2023-04-29T02:16:15.466Z,99591.28
2023-04-29T02:18:43.976Z,99594.22
2023-04-29T02:21:12.342Z,99590.13
2023-04-29T02:23:39.984Z,99600.13
2023-04-29T02:26:09.463Z,99602.34
2023-04-29T02:28:37.092Z,99607.97
2023-04-29T02:31:04.860Z,99611.88
2023-04-29T02:33:33.041Z,99612.97
2023-04-29T02:36:00.875Z,99612.44
2023-04-29T02:38:28.586Z,99615.22
2023-04-29T02:40:56.835Z,99619.00
2023-04-29T02:43:24.431Z,99617.56
2023-04-29T02:45:52.260Z,99615.16
2023-04-29T02:48:20.004Z,99622.47
2023-04-29T02:50:47.573Z,99629.59
2023-04-29T02:53:15.509Z,99631.44
2023-04-29T02:55:43.452Z,99639.69
2023-04-29T02:58:11.001Z,99629.44
2023-04-29T03:00:38.547Z,99636.03
2023-04-29T03:03:06.547Z,99636.44
2023-04-29T03:05:35.299Z,99646.38
2023-04-29T03:08:04.825Z,99648.47
2023-04-29T03:10:32.440Z,99645.22
2023-04-29T03:13:00.025Z,99650.13
2023-04-29T03:15:27.576Z,99648.69
2023-04-29T03:17:56.347Z,99652.63
2023-04-29T03:20:24.745Z,99658.19
2023-04-29T03:22:52.301Z,99652.28
2023-04-29T03:25:20.266Z,99662.09
2023-04-29T03:27:47.892Z,99653.66
2023-04-29T03:30:15.846Z,99658.97
2023-04-29T03:32:43.462Z,99665.16
2023-04-29T03:35:14.163Z,99664.31
2023-04-29T03:37:44.611Z,99658.28
2023-04-29T03:40:12.334Z,99661.91
2023-04-29T03:42:40.275Z,99667.25
2023-04-29T03:45:07.874Z,99671.59
2023-04-29T03:47:36.194Z,99671.59
2023-04-29T03:50:04.522Z,99674.25
2023-04-29T03:52:32.162Z,99676.19
2023-04-29T03:55:00.075Z,99671.00
2023-04-29T03:57:27.940Z,99670.16
2023-04-29T03:59:55.693Z,99673.91
2023-04-29T04:02:23.361Z,99675.88
2023-04-29T04:04:51.159Z,99684.84
2023-04-29T04:07:19.274Z,99686.66
2023-04-29T04:09:48.203Z,99691.28
2023-04-29T04:12:15.778Z,99695.19
2023-04-29T04:14:43.492Z,99701.63
2023-04-29T04:17:11.856Z,99707.91
2023-04-29T04:19:39.780Z,99710.00
2023-04-29T04:22:07.874Z,99707.56
2023-04-29T04:24:35.425Z,99716.53
2023-04-29T04:27:02.988Z,99717.41
2023-04-29T04:29:30.697Z,99712.06
2023-04-29T04:31:58.853Z,99718.50
2023-04-29T04:34:26.534Z,99709.53
2023-04-29T04:36:54.125Z,99713.88
2023-04-29T04:39:21.700Z,99730.56
2023-04-29T04:41:49.226Z,99719.19
2023-04-29T04:44:17.075Z,99727.06
2023-04-29T04:46:44.642Z,99731.53
2023-04-29T04:49:12.215Z,99730.56
2023-04-29T04:51:39.838Z,99732.41
2023-04-29T04:54:07.715Z,99735.06
2023-04-29T04:56:38.029Z,99739.53
2023-04-29T04:59:05.651Z,99741.47
2023-04-29T05:01:33.267Z,99746.81
2023-04-29T05:04:02.933Z,99747.91
2023-04-29T05:06:30.592Z,99764.84
2023-04-29T05:08:58.533Z,99753.50
2023-04-29T05:11:26.137Z,99748.16
2023-04-29T05:13:53.734Z,99750.94
2023-04-29T05:16:21.611Z,99766.91
2023-04-29T05:18:49.222Z,99764.97
2023-04-29T05:21:17.787Z,99760.50
2023-04-29T05:23:45.590Z,99758.81
2023-04-29T05:26:13.179Z,99764.84
2023-04-29T05:28:40.958Z,99759.41
2023-04-29T05:31:08.573Z,99767.00
2023-04-29T05:33:36.587Z,99770.38
2023-04-29T05:36:04.478Z,99779.94
2023-04-29T05:38:32.401Z,99774.63
2023-04-29T05:41:00.130Z,99781.50
2023-04-29T05:43:27.979Z,99773.53
2023-04-29T05:45:56.371Z,99772.56
2023-04-29T05:48:24.894Z,99792.88
2023-04-29T05:50:52.507Z,99794.44
2023-04-29T05:53:20.125Z,99791.53
2023-04-29T05:55:49.184Z,99794.06
2023-04-29T05:58:18.315Z,99805.44
2023-04-29T06:00:49.471Z,99806.28
2023-04-29T06:03:17.268Z,99809.53
2023-04-29T06:05:45.649Z,99819.94
2023-04-29T06:08:13.470Z,99825.03
2023-04-29T06:10:41.650Z,99822.97
2023-04-29T06:13:09.381Z,99829.81
2023-04-29T06:15:37.135Z,99826.22
2023-04-29T06:18:04.851Z,99841.22
2023-04-29T06:20:32.520Z,99828.72
2023-04-29T06:23:00.793Z,99841.81
2023-04-29T06:25:28.905Z,99831.88
2023-04-29T06:27:56.795Z,99843.94
2023-04-29T06:30:24.419Z,99848.75
2023-04-29T06:32:52.113Z,99847.28
2023-04-29T06:35:20.109Z,99849.44
2023-04-29T06:37:47.968Z,99853.50
2023-04-29T06:40:15.587Z,99851.31
2023-04-29T06:42:43.905Z,99853.75
2023-04-29T06:45:11.787Z,99857.13
2023-04-29T06:47:39.534Z,99861.47
2023-04-29T06:50:07.230Z,99866.69
2023-04-29T06:52:34.839Z,99870.19
2023-04-29T06:55:02.440Z,99873.00
2023-04-29T06:57:30.082Z,99881.00
2023-04-29T06:59:58.102Z,99884.50
2023-04-29T07:02:26.077Z,99884.50
2023-04-29T07:04:54.530Z,99886.34
2023-04-29T07:07:22.605Z,99881.81
2023-04-29T07:09:52.360Z,99892.63
2023-04-29T07:12:20.324Z,99900.75
2023-04-29T07:14:48.300Z,99904.53
2023-04-29T07:17:15.931Z,99911.94
2023-04-29T07:19:43.590Z,99914.72
2023-04-29T07:22:11.180Z,99916.78
2023-04-29T07:24:39.192Z,99916.19
2023-04-29T07:27:07.289Z,99929.69
2023-04-29T07:29:34.891Z,99926.16
2023-04-29T07:32:02.589Z,99934.28
2023-04-29T07:34:30.231Z,99935.75
2023-04-29T07:36:57.989Z,99945.97
2023-04-29T07:39:25.894Z,99946.06
2023-04-29T07:41:53.621Z,99948.84
2023-04-29T07:44:22.023Z,99947.16
2023-04-29T07:46:49.683Z,99947.44
2023-04-29T07:49:17.707Z,99957.22
2023-04-29T07:51:46.734Z,99970.69
2023-04-29T07:54:14.384Z,99972.63
2023-04-29T07:56:42.209Z,99974.47
2023-04-29T07:59:09.871Z,99977.94
2023-04-29T08:01:37.887Z,99977.94
2023-04-29T08:04:06.059Z,99985.94
2023-04-29T08:06:34.029Z,99986.91
2023-04-29T08:09:03.123Z,100000.13
2023-04-29T08:11:31.141Z,99995.41
2023-04-29T08:14:00.448Z,99992.00
2023-04-29T08:16:28.282Z,100000.13
2023-04-29T08:18:56.410Z,100000.38
2023-04-29T08:21:24.139Z,100001.47
2023-04-29T08:23:51.961Z,99998.56
2023-04-29T08:26:20.021Z,100004.59
2023-04-29T08:28:48.113Z,100003.50
2023-04-29T08:31:15.992Z,100016.84
2023-04-29T08:33:43.812Z,100007.97
2023-04-29T08:36:11.941Z,100013.09
2023-04-29T08:38:40.046Z,100013.81
2023-04-29T08:41:08.682Z,100016.34
2023-04-29T08:43:36.875Z,100016.09
2023-04-29T08:46:04.859Z,100018.75
2023-04-29T08:48:32.736Z,100029.31
2023-04-29T08:51:02.897Z,100039.00
2023-04-29T08:53:31.292Z,100036.31
2023-04-29T08:55:58.995Z,100035.94
2023-04-29T08:58:26.760Z,100028.94
2023-04-29T09:00:54.684Z,100041.28
2023-04-29T09:03:23.085Z,100036.22
2023-04-29T09:05:51.021Z,100046.00
2023-04-29T09:08:18.759Z,100044.31
2023-04-29T09:10:46.487Z,100048.81
2023-04-29T09:13:14.429Z,100044.91
2023-04-29T09:15:43.226Z,100056.44
2023-04-29T09:18:10.992Z,100050.97
2023-04-29T09:20:38.736Z,100048.19
2023-04-29T09:23:06.563Z,100057.88
2023-04-29T09:25:35.165Z,100062.84
2023-04-29T09:28:03.099Z,100068.91
2023-04-29T09:30:31.358Z,100063.44
2023-04-29T09:32:59.274Z,100063.44
2023-04-29T09:35:27.220Z,100073.88
2023-04-29T09:37:55.286Z,100062.09
2023-04-29T09:40:23.777Z,100077.97
2023-04-29T09:42:51.584Z,100085.59
2023-04-29T09:45:19.408Z,100084.50
2023-04-29T09:47:47.732Z,100087.88
2023-04-29T09:50:16.621Z,100082.44
2023-04-29T09:52:45.112Z,100083.28
2023-04-29T09:55:15.713Z,100092.25
2023-04-29T09:57:45.159Z,100087.66
2023-04-29T10:00:13.585Z,100087.53
2023-04-29T10:02:41.874Z,100097.59
2023-04-29T10:05:10.557Z,100088.34
2023-04-29T10:07:38.413Z,100094.06
2023-04-29T10:10:06.636Z,100085.88
2023-04-29T10:12:34.455Z,100084.44
2023-04-29T10:15:02.137Z,100087.16
2023-04-29T10:17:30.477Z,100087.53
2023-04-29T10:19:58.850Z,100087.72
2023-04-29T10:22:27.119Z,100096.09
2023-04-29T10:24:55.271Z,100092.69
2023-04-29T10:27:24.888Z,100102.56
2023-04-29T10:29:53.734Z,100094.44
2023-04-29T10:32:21.456Z,100090.78
2023-04-29T10:34:49.700Z,100088.81
2023-04-29T10:37:17.821Z,100084.59
2023-04-29T10:39:45.793Z,100086.44
2023-04-29T10:42:14.242Z,100089.06
2023-04-29T10:44:42.138Z,100097.84
2023-04-29T10:47:10.363Z,100097.03
2023-04-29T10:49:38.134Z,100091.38
2023-04-29T10:52:06.010Z,100095.31
2023-04-29T10:54:34.689Z,100104.28
2023-04-29T10:57:02.519Z,100095.25
2023-04-29T10:59:30.353Z,100094.41
2023-04-29T11:01:58.235Z,100097.22
2023-04-29T11:04:26.072Z,100100.31
2023-04-29T11:06:54.267Z,100100.59
2023-04-29T11:09:23.848Z,100101.00
2023-04-29T11:11:54.263Z,100102.25
2023-04-29T11:14:22.321Z,100104.75
2023-04-29T11:16:50.624Z,100100.44
2023-04-29T11:19:19.289Z,100099.00
2023-04-29T11:21:47.558Z,100098.97
2023-04-29T11:24:17.684Z,100098.78
2023-04-29T11:26:46.638Z,100102.09
2023-04-29T11:29:14.533Z,100101.44
2023-04-29T11:31:42.615Z,100108.63
2023-04-29T11:34:10.729Z,100111.06
2023-04-29T11:36:38.575Z,100114.16
2023-04-29T11:39:06.414Z,100116.13
2023-04-29T11:41:35.967Z,100117.94
2023-04-29T11:44:05.562Z,100123.56
2023-04-29T11:46:33.834Z,100120.44
2023-04-29T11:49:01.941Z,100121.97
2023-04-29T11:51:29.939Z,100117.56
2023-04-29T11:53:58.180Z,100128.63
2023-04-29T11:56:27.272Z,100132.88
2023-04-29T11:58:55.268Z,100129.56
2023-04-29T12:01:23.320Z,100138.22
2023-04-29T12:03:51.460Z,100133.84
2023-04-29T12:06:19.584Z,100137.81
2023-04-29T12:08:47.568Z,100127.94
2023-04-29T12:11:15.848Z,100138.06
2023-04-29T12:13:43.620Z,100131.44
2023-04-29T12:16:11.800Z,100138.91
2023-04-29T12:18:39.727Z,100138.03
2023-04-29T12:21:07.787Z,100141.16
2023-04-29T12:23:35.976Z,100134.00
2023-04-29T12:26:03.780Z,100136.41
2023-04-29T12:28:31.996Z,100152.22
2023-04-29T12:30:59.843Z,100152.78
2023-04-29T12:33:28.453Z,100150.72
2023-04-29T12:35:57.127Z,100160.72
2023-04-29T12:38:27.330Z,100151.53
2023-04-29T12:40:55.122Z,100160.19
2023-04-29T12:43:23.142Z,100159.31
2023-04-29T12:45:51.387Z,100154.66
2023-04-29T12:48:26.733Z,100161.31
2023-04-29T12:50:58.834Z,100143.63
2023-04-29T12:53:26.529Z,100149.28
2023-04-29T12:55:54.562Z,100156.75
2023-04-29T12:58:23.071Z,100163.25
2023-04-29T13:00:51.042Z,100154.75
2023-04-29T13:03:22.009Z,100167.19
2023-04-29T13:05:52.801Z,100150.53
2023-04-29T13:08:20.591Z,100159.84
2023-04-29T13:10:48.425Z,100157.75
2023-04-29T13:13:16.493Z,100157.34
2023-04-29T13:15:44.346Z,100160.28
2023-04-29T13:18:12.040Z,100157.03
2023-04-29T13:20:42.024Z,100161.69
2023-04-29T13:23:10.974Z,100158.19
2023-04-29T13:25:38.772Z,100162.69
2023-04-29T13:28:07.880Z,100163.56
2023-04-29T13:30:36.129Z,100163.69
2023-04-29T13:33:11.778Z,100160.44
2023-04-29T13:35:42.129Z,100169.34
2023-04-29T13:38:10.046Z,100173.72
2023-04-29T13:40:40.662Z,100173.84
2023-04-29T13:43:15.912Z,100167.63
2023-04-29T13:45:52.823Z,100168.16
2023-04-29T13:54:01.652Z,100163.56
2023-04-29T14:01:44.091Z,100165.66
2023-04-29T14:04:03.178Z,100167.91
2023-04-29T14:06:32.793Z,100173.03
2023-04-29T14:09:03.577Z,100177.41
2023-04-29T14:11:36.806Z,100174.78
2023-04-29T14:14:05.236Z,100187.19
2023-04-29T14:16:33.612Z,100187.94
2023-04-29T14:19:03.864Z,100197.56
2023-04-29T14:21:33.543Z,100187.38
2023-04-29T14:24:03.976Z,100182.28
2023-04-29T14:26:32.377Z,100187.81
2023-04-29T14:29:00.681Z,100195.00
2023-04-29T14:31:29.638Z,100194.00
2023-04-29T14:33:57.537Z,100189.94
2023-04-29T14:36:25.282Z,100192.31
2023-04-29T14:38:53.635Z,100193.00
2023-04-29T14:41:22.369Z,100199.22
2023-04-29T14:43:50.532Z,100197.56
2023-04-29T14:46:18.659Z,100205.84
2023-04-29T14:48:46.468Z,100208.41
2023-04-29T14:51:14.616Z,100207.28
2023-04-29T14:53:43.345Z,100206.16
2023-04-29T14:56:11.277Z,100213.22
2023-04-29T14:58:39.096Z,100211.53
2023-04-29T15:01:06.998Z,100221.09
2023-04-29T15:03:43.629Z,100225.34
2023-04-29T15:06:12.682Z,100222.50
2023-04-29T15:08:40.586Z,100227.41
2023-04-29T15:11:08.395Z,100221.88
2023-04-29T15:13:36.685Z,100225.09
2023-04-29T15:16:04.906Z,100222.69
2023-04-29T15:18:33.009Z,100222.81
2023-04-29T15:21:01.160Z,100224.66
2023-04-29T15:23:28.968Z,100227.19
2023-04-29T15:25:57.188Z,100229.47
2023-04-29T15:28:26.214Z,100231.59
2023-04-29T15:30:54.401Z,100232.78
2023-04-29T15:33:22.262Z,100232.09
2023-04-29T15:35:50.107Z,100232.66
2023-04-29T15:38:18.585Z,100228.00
2023-04-29T15:40:46.631Z,100230.44
2023-04-29T15:43:14.911Z,100226.31
2023-04-29T15:45:42.733Z,100222.69
2023-04-29T15:48:10.957Z,100226.50
2023-04-29T15:50:39.279Z,100229.41
2023-04-29T15:53:07.307Z,100226.72
2023-04-29T15:55:36.241Z,100227.00
2023-04-29T15:58:04.155Z,100227.81
2023-04-29T16:00:32.101Z,100231.50
2023-04-29T16:03:00.295Z,100222.28
2023-04-29T16:05:28.300Z,100232.81
2023-04-29T16:07:56.670Z,100230.88
2023-04-29T16:10:24.729Z,100229.50
2023-04-29T16:12:52.605Z,100237.84
2023-04-29T16:15:20.827Z,100233.47
2023-04-29T16:17:48.719Z,100241.97
2023-04-29T16:20:17.785Z,100245.41
2023-04-29T16:22:45.649Z,100239.09
2023-04-29T16:25:13.763Z,100239.13
2023-04-29T16:27:42.404Z,100246.38
2023-04-29T16:30:10.286Z,100243.72
2023-04-29T16:32:38.621Z,100249.84
2023-04-29T16:35:06.760Z,100247.88
2023-04-29T16:37:34.535Z,100252.28
2023-04-29T16:40:02.428Z,100253.00
2023-04-29T16:42:30.505Z,100245.78
2023-04-29T16:44:58.671Z,100247.47
2023-04-29T16:47:26.995Z,100254.69
2023-04-29T16:49:55.717Z,100252.00
2023-04-29T16:52:24.769Z,100256.41
2023-04-29T16:54:52.690Z,100251.88
2023-04-29T16:57:21.839Z,100248.91
2023-04-29T16:59:49.881Z,100258.38
2023-04-29T17:02:17.756Z,100249.91
2023-04-29T17:04:46.209Z,100261.72
2023-04-29T17:07:14.722Z,100260.19
2023-04-29T17:09:42.537Z,100262.16
2023-04-29T17:12:10.505Z,100260.47
2023-04-29T17:14:40.283Z,100260.59
2023-04-29T17:17:09.267Z,100265.13
2023-04-29T17:19:37.187Z,100266.13
2023-04-29T17:22:05.275Z,100266.38
2023-04-29T17:24:33.944Z,100271.03
2023-04-29T17:27:02.108Z,100258.88
2023-04-29T17:29:30.188Z,100269.88
2023-04-29T17:32:00.201Z,100269.19
2023-04-29T17:34:30.112Z,100268.75
2023-04-29T17:36:58.428Z,100264.50
2023-04-29T17:39:26.273Z,100263.94
2023-04-29T17:41:54.951Z,100266.19
2023-04-29T17:44:23.657Z,100264.72
2023-04-29T17:46:51.772Z,100262.47
2023-04-29T17:49:19.778Z,100264.56
2023-04-29T17:51:47.750Z,100269.47
2023-04-29T17:54:15.988Z,100266.22
2023-04-29T17:56:43.994Z,100275.50
2023-04-29T17:59:12.751Z,100266.91
2023-04-29T18:01:40.741Z,100267.31
2023-04-29T18:04:08.874Z,100267.72
2023-04-29T18:06:36.956Z,100275.16
2023-04-29T18:09:04.883Z,100269.34
2023-04-29T18:11:33.186Z,100283.84
2023-04-29T18:14:01.396Z,100284.25
2023-04-29T18:16:29.285Z,100281.00
2023-04-29T18:18:57.971Z,100283.09
2023-04-29T18:21:25.847Z,100284.19
2023-04-29T18:23:53.799Z,100288.84
2023-04-29T18:26:22.137Z,100289.13
2023-04-29T18:28:50.038Z,100291.06
2023-04-29T18:31:18.301Z,100283.31
2023-04-29T18:33:46.401Z,100287.81
2023-04-29T18:36:15.154Z,100288.94
2023-04-29T18:38:43.399Z,100286.38
2023-04-29T18:41:12.356Z,100284.69
2023-04-29T18:43:40.580Z,100289.31
2023-04-29T18:46:08.511Z,100299.28
2023-04-29T18:48:38.561Z,100300.41
2023-04-29T18:51:07.378Z,100302.34
2023-04-29T18:53:35.177Z,100297.28
2023-04-29T18:56:04.119Z,100303.63
2023-04-29T18:58:31.833Z,100296.69
2023-04-29T19:01:00.331Z,100303.25
2023-04-29T19:03:28.307Z,100309.00
2023-04-29T19:05:56.214Z,100305.88
2023-04-29T19:08:24.993Z,100304.44
2023-04-29T19:10:53.674Z,100306.63
2023-04-29T19:13:22.255Z,100308.97
2023-04-29T19:15:52.949Z,100315.66
2023-04-29T19:18:22.930Z,100311.69
2023-04-29T19:20:51.200Z,100318.50
2023-04-29T19:23:19.228Z,100323.75
2023-04-29T19:25:47.408Z,100325.50
2023-04-29T19:28:15.143Z,100322.94
2023-04-29T19:30:43.064Z,100329.31
2023-04-29T19:33:11.602Z,100337.47
2023-04-29T19:35:39.456Z,100325.94
2023-04-29T19:38:07.472Z,100338.44
2023-04-29T19:40:35.387Z,100345.59
2023-04-29T19:43:03.342Z,100341.09
2023-04-29T19:45:31.929Z,100344.59
2023-04-29T19:48:02.353Z,100342.00
2023-04-29T19:50:30.382Z,100339.28
2023-04-29T19:52:58.132Z,100344.47
2023-04-29T19:55:26.159Z,100351.38
2023-04-29T19:57:54.604Z,100344.19
2023-04-29T20:00:22.704Z,100348.28
2023-04-29T20:02:52.680Z,100348.84
2023-04-29T20:05:21.133Z,100346.75
2023-04-29T20:07:50.034Z,100354.38
2023-04-29T20:10:18.386Z,100351.44
2023-04-29T20:12:46.927Z,100360.59
2023-04-29T20:15:15.003Z,100360.84
2023-04-29T20:17:42.932Z,100359.34
2023-04-29T20:20:10.840Z,100358.81
2023-04-29T20:22:39.255Z,100367.28
2023-04-29T20:25:07.772Z,100363.22
2023-04-29T20:27:36.362Z,100363.56
2023-04-29T20:30:04.584Z,100370.09
2023-04-29T20:32:32.464Z,100376.16
2023-04-29T20:35:00.689Z,100375.06
2023-04-29T20:37:28.670Z,100383.47
2023-04-29T20:39:57.036Z,100385.78
2023-04-29T20:42:24.791Z,100388.97
2023-04-29T20:44:52.533Z,100393.00
2023-04-29T20:47:20.942Z,100390.84
2023-04-29T20:49:49.779Z,100397.66
2023-04-29T20:52:19.027Z,100399.25
2023-04-29T20:54:46.921Z,100403.59
2023-04-29T20:57:14.709Z,100403.75
2023-04-29T20:59:43.163Z,100408.31
2023-04-29T21:02:11.587Z,100414.72
2023-04-29T21:04:39.511Z,100408.78
2023-04-29T21:07:07.869Z,100416.97
2023-04-29T21:09:36.066Z,100418.16
2023-04-29T21:12:06.197Z,100413.03
2023-04-29T21:14:34.348Z,100409.53
2023-04-29T21:17:02.531Z,100402.63
2023-04-29T21:19:30.306Z,100410.81
2023-04-29T21:21:58.207Z,100417.34
2023-04-29T21:24:27.568Z,100418.63
2023-04-29T21:26:55.295Z,100422.56
2023-04-29T21:29:23.197Z,100426.44
2023-04-29T21:31:51.242Z,100427.38
2023-04-29T21:34:19.094Z,100422.91
2023-04-29T21:36:47.702Z,100429.91
2023-04-29T21:39:15.644Z,100436.09
2023-04-29T21:41:43.827Z,100431.75
2023-04-29T21:44:11.690Z,100429.31
2023-04-29T21:46:39.569Z,100441.03
2023-04-29T21:49:08.211Z,100446.69
2023-04-29T21:51:36.077Z,100440.81
2023-04-29T21:54:08.578Z,100444.75
2023-04-29T21:56:36.421Z,100446.97
2023-04-29T21:59:04.544Z,100446.56
2023-04-29T22:01:48.958Z,100449.72
2023-04-29T22:04:17.396Z,100446.94
2023-04-29T22:06:45.255Z,100450.25
2023-04-29T22:09:13.179Z,100460.56
2023-04-29T22:11:41.044Z,100460.22
2023-04-29T22:14:09.330Z,100458.19
2023-04-29T22:16:37.337Z,100458.59
2023-04-29T22:19:06.049Z,100464.53
2023-04-29T22:21:33.747Z,100470.25
2023-04-29T22:24:01.491Z,100476.91
2023-04-29T22:26:29.611Z,100475.59
2023-04-29T22:28:57.295Z,100471.53
2023-04-29T22:31:25.165Z,100481.59
2023-04-29T22:33:52.864Z,100484.56
2023-04-29T22:36:20.632Z,100479.25
2023-04-29T22:38:48.700Z,100482.66
2023-04-29T22:41:19.937Z,100490.63
2023-04-29T22:43:51.070Z,100488.06
2023-04-29T22:46:18.812Z,100496.03
2023-04-29T22:48:46.688Z,100511.22
2023-04-29T22:51:14.686Z,100496.31
2023-04-29T22:53:42.641Z,100504.59
2023-04-29T22:56:10.262Z,100499.56
2023-04-29T22:58:38.142Z,100503.41
2023-04-29T23:01:06.039Z,100502.81
2023-04-29T23:03:34.345Z,100508.44
2023-04-29T23:06:02.714Z,100511.38
2023-04-29T23:08:30.595Z,100516.97
2023-04-29T23:10:58.294Z,100513.81
2023-04-29T23:13:26.069Z,100520.28
2023-04-29T23:15:54.088Z,100520.59
2023-04-29T23:18:21.983Z,100526.25
2023-04-29T23:20:49.803Z,100530.03
2023-04-29T23:23:17.425Z,100529.50
2023-04-29T23:25:45.425Z,100534.13
2023-04-29T23:28:13.183Z,100534.41
2023-04-29T23:30:41.268Z,100536.47
2023-04-29T23:33:09.193Z,100536.72
2023-04-29T23:35:36.889Z,100532.53
2023-04-29T23:38:04.725Z,100546.06
2023-04-29T23:40:32.656Z,100540.97
2023-04-29T23:43:00.294Z,100543.78
2023-04-29T23:45:27.945Z,100537.81
2023-04-29T23:47:56.025Z,100540.75
2023-04-29T23:50:23.777Z,100539.97
2023-04-29T23:52:51.752Z,100541.97
2023-04-29T23:55:20.682Z,100544.81
2023-04-29T23:57:48.331Z,100539.66
